SCFU weather

Loncopan Airport
Futrono, Los RĂ­os Region, Chile

Public forecast

Using degrees Celsius for public forecast. Weather courtesy of forecast.io.

Closest aviation weather report (METAR) to Loncopan Airport

Closest report is Pichoy Airport, 35.5 nm (65.8 km) NW. Retrieved 2019/10/15 07:00 UTC (36 minutes ago):

SCVD 150700Z AUTO VRB02KT 9999 -RA NCD 10/08 Q1017

Closest aviation forecast (TAF) to Loncopan Airport

Forecast is more than 12 hours old.

Closest forecast is Pichoy Airport, 35.5 nm (65.8 km) NW. Retrieved 2019/10/14 12:00 UTC (20 hours ago):

TAF SCVD 141028Z 1412/1424 17010KT CAVOK TN03/1412Z TX18/1419Z BECMG 1415/1417 12010KT TEMPO 1421/1424 8000 -SHRA SCT040 BKN100